sensor_id;sensor_type;location;lat;lon;timestamp;pressure;altitude;pressure_sealevel;temperature;humidity
8451;BME280;4262;50.980;13.892;2023-05-03T03:33:13;50321.94;;;-142.97;27.85
8451;BME280;4262;50.980;13.892;2023-05-03T03:35:40;50341.44;;;-142.97;27.93
8451;BME280;4262;50.980;13.892;2023-05-03T03:38:09;50310.25;;;-142.97;27.70
8451;BME280;4262;50.980;13.892;2023-05-03T03:40:45;50351.19;;;-142.97;27.74
8451;BME280;4262;50.980;13.892;2023-05-03T03:43:12;50312.19;;;-142.97;27.38
8451;BME280;4262;50.980;13.892;2023-05-03T03:45:39;50333.63;;;-142.97;27.80
8451;BME280;4262;50.980;13.892;2023-05-03T03:48:07;50325.84;;;-142.97;27.60
8451;BME280;4262;50.980;13.892;2023-05-03T03:50:37;50341.44;;;-142.97;27.35
8451;BME280;4262;50.980;13.892;2023-05-03T03:53:04;50329.72;;;-142.97;27.39
8451;BME280;4262;50.980;13.892;2023-05-03T03:55:31;50351.19;;;-142.97;27.45
8451;BME280;4262;50.980;13.892;2023-05-03T03:57:58;50331.69;;;-142.97;27.38
8451;BME280;4262;50.980;13.892;2023-05-03T04:00:26;50327.78;;;-142.97;27.74
8451;BME280;4262;50.980;13.892;2023-05-03T04:03:03;50294.63;;;-142.97;27.28
8451;BME280;4262;50.980;13.892;2023-05-03T04:05:31;50339.47;;;-142.97;27.18
8451;BME280;4262;50.980;13.892;2023-05-03T04:07:59;50320.00;;;-142.97;26.97
8451;BME280;4262;50.980;13.892;2023-05-03T04:10:30;50306.34;;;-142.97;26.97
8451;BME280;4262;50.980;13.892;2023-05-03T04:12:57;50321.94;;;-142.97;27.07
8451;BME280;4262;50.980;13.892;2023-05-03T04:15:24;50339.47;;;-142.97;27.17
8451;BME280;4262;50.980;13.892;2023-05-03T04:17:53;50288.78;;;-142.97;27.74
8451;BME280;4262;50.980;13.892;2023-05-03T04:20:21;50298.53;;;-142.97;27.42
8451;BME280;4262;50.980;13.892;2023-05-03T04:22:49;50327.78;;;-142.97;27.65
8451;BME280;4262;50.980;13.892;2023-05-03T04:25:21;50321.94;;;-142.97;27.85
8451;BME280;4262;50.980;13.892;2023-05-03T04:27:55;50339.47;;;-142.97;27.52
8451;BME280;4262;50.980;13.892;2023-05-03T04:30:25;50358.97;;;-142.97;28.30
8451;BME280;4262;50.980;13.892;2023-05-03T04:32:55;50304.38;;;-142.97;28.00
8451;BME280;4262;50.980;13.892;2023-05-03T04:35:23;50308.28;;;-142.97;27.93
8451;BME280;4262;50.980;13.892;2023-05-03T04:37:51;50310.25;;;-142.97;27.36
8451;BME280;4262;50.980;13.892;2023-05-03T04:40:23;50329.72;;;-142.97;27.30
8451;BME280;4262;50.980;13.892;2023-05-03T04:43:00;50321.94;;;-142.97;27.55
8451;BME280;4262;50.980;13.892;2023-05-03T04:45:30;50323.88;;;-142.97;28.13
8451;BME280;4262;50.980;13.892;2023-05-03T04:47:56;50335.59;;;-142.97;27.76
8451;BME280;4262;50.980;13.892;2023-05-03T04:50:23;50323.88;;;-142.97;28.29
8451;BME280;4262;50.980;13.892;2023-05-03T04:52:50;50304.38;;;-142.97;28.35
8451;BME280;4262;50.980;13.892;2023-05-03T04:55:19;50286.84;;;-142.97;28.65
8451;BME280;4262;50.980;13.892;2023-05-03T04:57:48;50333.63;;;-142.97;28.88
8451;BME280;4262;50.980;13.892;2023-05-03T05:00:16;50275.16;;;-142.97;29.29
8451;BME280;4262;50.980;13.892;2023-05-03T05:02:50;50306.34;;;-142.97;28.98
8451;BME280;4262;50.980;13.892;2023-05-03T05:05:17;50323.88;;;-142.97;28.86
8451;BME280;4262;50.980;13.892;2023-05-03T05:07:44;50343.38;;;-142.97;29.45
8451;BME280;4262;50.980;13.892;2023-05-03T05:10:12;50282.94;;;-142.97;29.06
8451;BME280;4262;50.980;13.892;2023-05-03T05:12:39;50288.78;;;-142.97;28.91
8451;BME280;4262;50.980;13.892;2023-05-03T05:15:09;50318.03;;;-142.97;28.78
8451;BME280;4262;50.980;13.892;2023-05-03T05:17:37;50296.59;;;-142.97;28.51
8451;BME280;4262;50.980;13.892;2023-05-03T05:20:06;50320.00;;;-142.97;28.05
8451;BME280;4262;50.980;13.892;2023-05-03T05:22:42;50312.19;;;-142.97;27.88
8451;BME280;4262;50.980;13.892;2023-05-03T05:25:09;50304.38;;;-142.97;27.05
8451;BME280;4262;50.980;13.892;2023-05-03T05:27:38;50269.28;;;-142.97;27.99
8451;BME280;4262;50.980;13.892;2023-05-03T05:30:08;50255.66;;;-142.97;28.46
8451;BME280;4262;50.980;13.892;2023-05-03T05:32:38;50306.34;;;-142.97;28.07
8451;BME280;4262;50.980;13.892;2023-05-03T05:35:08;50306.34;;;-142.97;28.89
8451;BME280;4262;50.980;13.892;2023-05-03T05:37:35;50321.94;;;-142.97;28.58
8451;BME280;4262;50.980;13.892;2023-05-03T05:40:05;50290.75;;;-142.97;28.50
8451;BME280;4262;50.980;13.892;2023-05-03T05:42:48;50271.25;;;-142.97;28.37
8451;BME280;4262;50.980;13.892;2023-05-03T05:45:18;50292.69;;;-142.97;27.92
8451;BME280;4262;50.980;13.892;2023-05-03T05:47:46;50273.19;;;-142.97;27.33
8451;BME280;4262;50.980;13.892;2023-05-03T05:50:13;50298.53;;;-142.97;27.41
8451;BME280;4262;50.980;13.892;2023-05-03T05:52:42;50294.63;;;-142.97;27.83
8451;BME280;4262;50.980;13.892;2023-05-03T05:55:10;50304.38;;;-142.97;27.65
8451;BME280;4262;50.980;13.892;2023-05-03T05:57:39;50275.16;;;-142.97;27.76
8451;BME280;4262;50.980;13.892;2023-05-03T06:00:09;50337.53;;;-142.97;27.67
8451;BME280;4262;50.980;13.892;2023-05-03T06:02:40;50286.84;;;-142.97;27.65
8451;BME280;4262;50.980;13.892;2023-05-03T06:05:11;50306.34;;;-142.97;27.33
8451;BME280;4262;50.980;13.892;2023-05-03T06:07:38;50275.16;;;-142.97;27.04
8451;BME280;4262;50.980;13.892;2023-05-03T06:10:06;50259.56;;;-142.97;27.25
8451;BME280;4262;50.980;13.892;2023-05-03T06:12:36;50286.84;;;-142.97;27.13
8451;BME280;4262;50.980;13.892;2023-05-03T06:15:09;50310.25;;;-142.97;26.66
8451;BME280;4262;50.980;13.892;2023-05-03T06:17:36;50292.69;;;-142.97;27.10
8451;BME280;4262;50.980;13.892;2023-05-03T06:20:06;50277.09;;;-142.97;26.78
8451;BME280;4262;50.980;13.892;2023-05-03T06:22:39;50290.75;;;-142.97;26.28
8451;BME280;4262;50.980;13.892;2023-05-03T06:25:07;50296.59;;;-142.97;26.15
8451;BME280;4262;50.980;13.892;2023-05-03T06:27:36;50300.50;;;-142.97;26.12
8451;BME280;4262;50.980;13.892;2023-05-03T06:30:05;50277.09;;;-142.97;25.74
8451;BME280;4262;50.980;13.892;2023-05-03T06:32:33;50281.00;;;-142.97;25.67
8451;BME280;4262;50.980;13.892;2023-05-03T06:35:00;50257.59;;;-142.97;26.60
8451;BME280;4262;50.980;13.892;2023-05-03T06:37:29;50259.56;;;-142.97;26.53
8451;BME280;4262;50.980;13.892;2023-05-03T06:39:56;50257.59;;;-142.97;26.67
8451;BME280;4262;50.980;13.892;2023-05-03T06:42:24;50265.41;;;-142.97;25.55
8451;BME280;4262;50.980;13.892;2023-05-03T06:45:05;50261.50;;;-142.97;26.32
8451;BME280;4262;50.980;13.892;2023-05-03T06:47:31;50269.28;;;-142.97;25.83
8451;BME280;4262;50.980;13.892;2023-05-03T06:49:58;50249.81;;;-142.97;26.27
8451;BME280;4262;50.980;13.892;2023-05-03T06:52:27;50245.91;;;-142.97;26.64
8451;BME280;4262;50.980;13.892;2023-05-03T06:54:55;50113.34;;;-142.97;26.46
8451;BME280;4262;50.980;13.892;2023-05-03T06:57:21;50167.91;;;-142.97;26.24
8451;BME280;4262;50.980;13.892;2023-05-03T06:59:48;50259.56;;;-142.97;25.07
8451;BME280;4262;50.980;13.892;2023-05-03T07:02:16;50282.94;;;-142.97;24.89
8451;BME280;4262;50.980;13.892;2023-05-03T07:04:43;50218.59;;;-142.97;25.08
8451;BME280;4262;50.980;13.892;2023-05-03T07:07:10;50267.34;;;-142.97;25.30
8451;BME280;4262;50.980;13.892;2023-05-03T07:09:37;50195.22;;;-142.97;25.16
8451;BME280;4262;50.980;13.892;2023-05-03T07:12:06;50173.75;;;-142.97;24.79
8451;BME280;4262;50.980;13.892;2023-05-03T07:14:32;50162.06;;;-142.97;24.30
8451;BME280;4262;50.980;13.892;2023-05-03T07:16:59;50185.47;;;-142.97;23.83
8451;BME280;4262;50.980;13.892;2023-05-03T07:19:26;50167.91;;;-142.97;23.13
8451;BME280;4262;50.980;13.892;2023-05-03T07:21:54;50193.25;;;-142.97;23.49
8451;BME280;4262;50.980;13.892;2023-05-03T07:24:21;50167.91;;;-142.97;25.23
8451;BME280;4262;50.980;13.892;2023-05-03T07:26:49;50148.41;;;-142.97;24.15
8451;BME280;4262;50.980;13.892;2023-05-03T07:29:17;50158.16;;;-142.97;24.23
8451;BME280;4262;50.980;13.892;2023-05-03T07:31:45;50152.31;;;-142.97;24.19
8451;BME280;4262;50.980;13.892;2023-05-03T07:34:12;50175.72;;;-142.97;23.46
8451;BME280;4262;50.980;13.892;2023-05-03T07:36:39;50132.81;;;-142.97;23.19
8451;BME280;4262;50.980;13.892;2023-05-03T07:39:05;50156.22;;;-142.97;23.40
8451;BME280;4262;50.980;13.892;2023-05-03T07:41:34;50152.31;;;-142.97;23.13
8451;BME280;4262;50.980;13.892;2023-05-03T07:44:01;50154.28;;;-142.97;23.08
8451;BME280;4262;50.980;13.892;2023-05-03T07:46:30;50158.16;;;-142.97;23.36
8451;BME280;4262;50.980;13.892;2023-05-03T07:48:59;50171.81;;;-142.97;22.64
8451;BME280;4262;50.980;13.892;2023-05-03T07:51:28;50175.72;;;-142.97;22.46
8451;BME280;4262;50.980;13.892;2023-05-03T07:53:54;50144.53;;;-142.97;22.25
8451;BME280;4262;50.980;13.892;2023-05-03T07:56:22;50148.41;;;-142.97;21.91
8451;BME280;4262;50.980;13.892;2023-05-03T07:58:49;50136.72;;;-142.97;22.98
8451;BME280;4262;50.980;13.892;2023-05-03T08:01:15;50148.41;;;-142.97;22.80
8451;BME280;4262;50.980;13.892;2023-05-03T08:03:44;50158.16;;;-142.97;22.31
8451;BME280;4262;50.980;13.892;2023-05-03T08:06:11;50152.31;;;-142.97;22.40
8451;BME280;4262;50.980;13.892;2023-05-03T08:08:38;50130.88;;;-142.97;21.92
8451;BME280;4262;50.980;13.892;2023-05-03T08:11:05;50121.13;;;-142.97;22.64
8451;BME280;4262;50.980;13.892;2023-05-03T08:13:33;50103.59;;;-142.97;22.20
8451;BME280;4262;50.980;13.892;2023-05-03T08:16:01;50134.78;;;-142.97;22.58
8451;BME280;4262;50.980;13.892;2023-05-03T08:18:28;50099.69;;;-142.97;22.89
8451;BME280;4262;50.980;13.892;2023-05-03T08:20:56;50109.44;;;-142.97;22.35
8451;BME280;4262;50.980;13.892;2023-05-03T08:23:24;50148.41;;;-142.97;23.42
8451;BME280;4262;50.980;13.892;2023-05-03T08:25:51;50128.94;;;-142.97;22.17
8451;BME280;4262;50.980;13.892;2023-05-03T08:28:19;50109.44;;;-142.97;21.36
8451;BME280;4262;50.980;13.892;2023-05-03T08:30:46;50119.19;;;-142.97;22.40
8451;BME280;4262;50.980;13.892;2023-05-03T08:33:13;50195.22;;;-142.97;22.35
8451;BME280;4262;50.980;13.892;2023-05-03T08:35:39;50251.75;;;-142.97;22.15
8451;BME280;4262;50.980;13.892;2023-05-03T08:38:08;50105.53;;;-142.97;22.12
8451;BME280;4262;50.980;13.892;2023-05-03T08:40:35;50070.44;;;-142.97;22.16
8451;BME280;4262;50.980;13.892;2023-05-03T08:43:07;50091.88;;;-142.97;22.04
8451;BME280;4262;50.980;13.892;2023-05-03T08:45:34;50089.94;;;-142.97;23.61
8451;BME280;4262;50.980;13.892;2023-05-03T08:48:02;50052.91;;;-142.97;23.26
8451;BME280;4262;50.980;13.892;2023-05-03T08:50:29;50060.69;;;-142.97;22.06
8451;BME280;4262;50.980;13.892;2023-05-03T08:52:58;50115.28;;;-142.97;22.69
8451;BME280;4262;50.980;13.892;2023-05-03T08:55:27;50076.28;;;-142.97;22.06
8451;BME280;4262;50.980;13.892;2023-05-03T08:57:54;50243.94;;;-142.97;21.43
8451;BME280;4262;50.980;13.892;2023-05-03T09:00:26;50292.69;;;-142.97;21.57
8451;BME280;4262;50.980;13.892;2023-05-03T09:02:53;50243.94;;;-142.97;21.44
8451;BME280;4262;50.980;13.892;2023-05-03T09:05:34;50080.19;;;-142.97;21.34
8451;BME280;4262;50.980;13.892;2023-05-03T09:08:04;50052.91;;;-142.97;21.84
8451;BME280;4262;50.980;13.892;2023-05-03T09:10:36;50093.84;;;-142.97;22.06
8451;BME280;4262;50.980;13.892;2023-05-03T09:13:04;50029.50;;;-142.97;22.38
8451;BME280;4262;50.980;13.892;2023-05-03T09:15:32;50105.53;;;-142.97;22.45
8451;BME280;4262;50.980;13.892;2023-05-03T09:18:07;50238.09;;;-142.97;21.59
8451;BME280;4262;50.980;13.892;2023-05-03T09:20:35;50236.16;;;-142.97;22.06
8451;BME280;4262;50.980;13.892;2023-05-03T09:23:06;50294.63;;;-142.97;22.95
8451;BME280;4262;50.980;13.892;2023-05-03T09:25:44;50074.34;;;-142.97;23.09
8451;BME280;4262;50.980;13.892;2023-05-03T09:28:12;50095.78;;;-142.97;22.10
8451;BME280;4262;50.980;13.892;2023-05-03T09:30:40;50076.28;;;-142.97;21.91
8451;BME280;4262;50.980;13.892;2023-05-03T09:33:07;50091.88;;;-142.97;21.99
8451;BME280;4262;50.980;13.892;2023-05-03T09:35:34;50066.53;;;-142.97;21.95
8451;BME280;4262;50.980;13.892;2023-05-03T09:38:01;50074.34;;;-142.97;21.21
8451;BME280;4262;50.980;13.892;2023-05-03T09:40:28;50070.44;;;-142.97;20.82
8451;BME280;4262;50.980;13.892;2023-05-03T09:43:05;50068.50;;;-142.97;21.10
8451;BME280;4262;50.980;13.892;2023-05-03T09:45:33;50050.94;;;-142.97;20.70
8451;BME280;4262;50.980;13.892;2023-05-03T09:48:01;50152.31;;;-142.97;20.16
8451;BME280;4262;50.980;13.892;2023-05-03T09:50:31;50214.72;;;-142.97;20.57
8451;BME280;4262;50.980;13.892;2023-05-03T09:53:01;50234.19;;;-142.97;21.46
8451;BME280;4262;50.980;13.892;2023-05-03T09:55:33;50271.25;;;-142.97;21.84
8451;BME280;4262;50.980;13.892;2023-05-03T09:58:00;50243.94;;;-142.97;21.73
8451;BME280;4262;50.980;13.892;2023-05-03T10:00:30;50123.06;;;-142.97;21.61
8451;BME280;4262;50.980;13.892;2023-05-03T10:03:00;50062.66;;;-142.97;21.17
8451;BME280;4262;50.980;13.892;2023-05-03T10:05:30;50076.28;;;-142.97;21.12
8451;BME280;4262;50.980;13.892;2023-05-03T10:08:00;50064.59;;;-142.97;21.46
8451;BME280;4262;50.980;13.892;2023-05-03T10:10:31;50068.50;;;-142.97;20.45
8451;BME280;4262;50.980;13.892;2023-05-03T10:13:20;50052.91;;;-142.97;21.10
8451;BME280;4262;50.980;13.892;2023-05-03T10:15:52;50058.75;;;-142.97;21.31
8451;BME280;4262;50.980;13.892;2023-05-03T10:18:23;50068.50;;;-142.97;22.38
8451;BME280;4262;50.980;13.892;2023-05-03T10:20:55;50247.84;;;-142.97;22.24
8451;BME280;4262;50.980;13.892;2023-05-03T10:23:24;50064.59;;;-142.97;22.81
8451;BME280;4262;50.980;13.892;2023-05-03T10:26:14;50080.19;;;-142.97;22.39
8451;BME280;4262;50.980;13.892;2023-05-03T10:28:41;50078.25;;;-142.97;22.10
8451;BME280;4262;50.980;13.892;2023-05-03T10:31:44;50078.25;;;-142.97;22.52
8451;BME280;4262;50.980;13.892;2023-05-03T10:34:22;50076.28;;;-142.97;21.75
8451;BME280;4262;50.980;13.892;2023-05-03T10:36:50;50072.38;;;-142.97;20.91
8451;BME280;4262;50.980;13.892;2023-05-03T10:39:18;50068.50;;;-142.97;20.39
8451;BME280;4262;50.980;13.892;2023-05-03T10:41:55;50068.50;;;-142.97;20.83
8451;BME280;4262;50.980;13.892;2023-05-03T10:44:26;50082.13;;;-142.97;20.60
8451;BME280;4262;50.980;13.892;2023-05-03T10:46:55;50091.88;;;-142.97;20.34
8451;BME280;4262;50.980;13.892;2023-05-03T10:49:23;50076.28;;;-142.97;21.12
8451;BME280;4262;50.980;13.892;2023-05-03T10:51:51;50080.19;;;-142.97;20.92
8451;BME280;4262;50.980;13.892;2023-05-03T10:54:18;50076.28;;;-142.97;21.52
8451;BME280;4262;50.980;13.892;2023-05-03T10:56:50;50084.09;;;-142.97;21.06
8451;BME280;4262;50.980;13.892;2023-05-03T10:59:18;50074.34;;;-142.97;22.00
8451;BME280;4262;50.980;13.892;2023-05-03T11:01:45;50088.00;;;-142.97;21.75
8451;BME280;4262;50.980;13.892;2023-05-03T11:04:26;50074.34;;;-142.97;22.07
8451;BME280;4262;50.980;13.892;2023-05-03T11:06:55;50253.69;;;-142.97;20.54
8451;BME280;4262;50.980;13.892;2023-05-03T11:09:29;50097.72;;;-142.97;20.79
8451;BME280;4262;50.980;13.892;2023-05-03T11:11:57;50072.38;;;-142.97;21.37
8451;BME280;4262;50.980;13.892;2023-05-03T11:14:24;50091.88;;;-142.97;21.51
8451;BME280;4262;50.980;13.892;2023-05-03T11:16:51;50080.19;;;-142.97;20.56
8451;BME280;4262;50.980;13.892;2023-05-03T11:19:23;50086.03;;;-142.97;21.68
8451;BME280;4262;50.980;13.892;2023-05-03T11:21:50;50095.78;;;-142.97;21.99
8451;BME280;4262;50.980;13.892;2023-05-03T11:24:17;50099.69;;;-142.97;21.77
8451;BME280;4262;50.980;13.892;2023-05-03T11:26:44;50088.00;;;-142.97;21.22
8451;BME280;4262;50.980;13.892;2023-05-03T11:29:11;50089.94;;;-142.97;20.98
8451;BME280;4262;50.980;13.892;2023-05-03T11:31:39;50054.84;;;-142.97;20.62
8451;BME280;4262;50.980;13.892;2023-05-03T11:34:07;50093.84;;;-142.97;20.66
8451;BME280;4262;50.980;13.892;2023-05-03T11:36:36;50103.59;;;-142.97;21.00
8451;BME280;4262;50.980;13.892;2023-05-03T11:39:03;50064.59;;;-142.97;20.57
8451;BME280;4262;50.980;13.892;2023-05-03T11:41:31;50054.84;;;-142.97;20.11
8451;BME280;4262;50.980;13.892;2023-05-03T11:43:58;50058.75;;;-142.97;20.83
8451;BME280;4262;50.980;13.892;2023-05-03T11:46:26;50095.78;;;-142.97;21.63
8451;BME280;4262;50.980;13.892;2023-05-03T11:48:54;50088.00;;;-142.97;21.66
8451;BME280;4262;50.980;13.892;2023-05-03T11:51:22;50076.28;;;-142.97;20.86
8451;BME280;4262;50.980;13.892;2023-05-03T11:53:50;50091.88;;;-142.97;20.64
8451;BME280;4262;50.980;13.892;2023-05-03T11:56:18;50099.69;;;-142.97;21.00
8451;BME280;4262;50.980;13.892;2023-05-03T11:58:51;50064.59;;;-142.97;20.88
8451;BME280;4262;50.980;13.892;2023-05-03T12:01:19;50107.47;;;-142.97;20.91
8451;BME280;4262;50.980;13.892;2023-05-03T12:03:47;50111.38;;;-142.97;21.23
8451;BME280;4262;50.980;13.892;2023-05-03T12:06:15;50095.78;;;-142.97;20.95
8451;BME280;4262;50.980;13.892;2023-05-03T12:08:42;50097.72;;;-142.97;22.04
8451;BME280;4262;50.980;13.892;2023-05-03T12:11:10;50076.28;;;-142.97;20.95
8451;BME280;4262;50.980;13.892;2023-05-03T12:13:37;50095.78;;;-142.97;20.94
8451;BME280;4262;50.980;13.892;2023-05-03T12:16:06;50095.78;;;-142.97;20.57
8451;BME280;4262;50.980;13.892;2023-05-03T12:18:46;50089.94;;;-142.97;20.18
8451;BME280;4262;50.980;13.892;2023-05-03T12:21:15;50091.88;;;-142.97;21.46
8451;BME280;4262;50.980;13.892;2023-05-03T12:23:42;50099.69;;;-142.97;21.29
8451;BME280;4262;50.980;13.892;2023-05-03T12:26:10;50056.78;;;-142.97;22.13
8451;BME280;4262;50.980;13.892;2023-05-03T12:28:36;50076.28;;;-142.97;21.44
8451;BME280;4262;50.980;13.892;2023-05-03T12:31:03;50084.09;;;-142.97;20.95
8451;BME280;4262;50.980;13.892;2023-05-03T12:33:30;50078.25;;;-142.97;21.06
8451;BME280;4262;50.980;13.892;2023-05-03T12:35:57;50111.38;;;-142.97;20.78
8451;BME280;4262;50.980;13.892;2023-05-03T12:38:24;50105.53;;;-142.97;21.36
8451;BME280;4262;50.980;13.892;2023-05-03T12:40:51;50101.63;;;-142.97;20.79
8451;BME280;4262;50.980;13.892;2023-05-03T12:43:21;50074.34;;;-142.97;20.83
8451;BME280;4262;50.980;13.892;2023-05-03T12:45:48;50093.84;;;-142.97;21.72
8451;BME280;4262;50.980;13.892;2023-05-03T12:48:15;50107.47;;;-142.97;21.61
8451;BME280;4262;50.980;13.892;2023-05-03T12:50:42;50097.72;;;-142.97;21.50
8451;BME280;4262;50.980;13.892;2023-05-03T12:53:10;50117.22;;;-142.97;21.48
8451;BME280;4262;50.980;13.892;2023-05-03T12:55:37;50109.44;;;-142.97;21.47
8451;BME280;4262;50.980;13.892;2023-05-03T12:58:04;50105.53;;;-142.97;21.46
8451;BME280;4262;50.980;13.892;2023-05-03T13:00:33;50109.44;;;-142.97;20.88
8451;BME280;4262;50.980;13.892;2023-05-03T13:03:01;50134.78;;;-142.97;20.83
8451;BME280;4262;50.980;13.892;2023-05-03T13:05:28;50107.47;;;-142.97;20.85
8451;BME280;4262;50.980;13.892;2023-05-03T13:07:55;50126.97;;;-142.97;20.97
8451;BME280;4262;50.980;13.892;2023-05-03T13:10:23;50119.19;;;-142.97;20.54
8451;BME280;4262;50.980;13.892;2023-05-03T13:12:51;50140.63;;;-142.97;20.62
8451;BME280;4262;50.980;13.892;2023-05-03T13:15:19;50107.47;;;-142.97;20.38
8451;BME280;4262;50.980;13.892;2023-05-03T13:17:51;50128.94;;;-142.97;21.32
8451;BME280;4262;50.980;13.892;2023-05-03T13:20:18;50105.53;;;-142.97;21.29
8451;BME280;4262;50.980;13.892;2023-05-03T13:22:47;50134.78;;;-142.97;20.40
8451;BME280;4262;50.980;13.892;2023-05-03T13:25:13;50136.72;;;-142.97;20.54
8451;BME280;4262;50.980;13.892;2023-05-03T13:27:40;50138.69;;;-142.97;20.78
8451;BME280;4262;50.980;13.892;2023-05-03T13:30:08;50115.28;;;-142.97;20.83
8451;BME280;4262;50.980;13.892;2023-05-03T13:32:35;50164.03;;;-142.97;21.27
8451;BME280;4262;50.980;13.892;2023-05-03T13:35:04;50136.72;;;-142.97;22.15
8451;BME280;4262;50.980;13.892;2023-05-03T13:37:31;50142.56;;;-142.97;22.54
8451;BME280;4262;50.980;13.892;2023-05-03T13:39:58;50146.47;;;-142.97;23.32
8451;BME280;4262;50.980;13.892;2023-05-03T13:42:25;50173.75;;;-142.97;22.09
8451;BME280;4262;50.980;13.892;2023-05-03T13:44:51;50197.16;;;-142.97;21.99
8451;BME280;4262;50.980;13.892;2023-05-03T13:47:18;50208.84;;;-142.97;21.55
8451;BME280;4262;50.980;13.892;2023-05-03T13:49:45;50234.19;;;-142.97;22.35
8451;BME280;4262;50.980;13.892;2023-05-03T13:52:13;50206.91;;;-142.97;22.20
8451;BME280;4262;50.980;13.892;2023-05-03T13:54:40;50220.56;;;-142.97;21.69
8451;BME280;4262;50.980;13.892;2023-05-03T13:57:07;50222.50;;;-142.97;22.09
8451;BME280;4262;50.980;13.892;2023-05-03T13:59:34;50243.94;;;-142.97;22.56
8451;BME280;4262;50.980;13.892;2023-05-03T14:02:01;50224.47;;;-142.97;22.06
8451;BME280;4262;50.980;13.892;2023-05-03T14:04:28;50212.75;;;-142.97;21.92
8451;BME280;4262;50.980;13.892;2023-05-03T14:06:55;50208.84;;;-142.97;22.22
8451;BME280;4262;50.980;13.892;2023-05-03T14:09:24;50265.41;;;-142.97;22.33
8451;BME280;4262;50.980;13.892;2023-05-03T14:11:52;50230.31;;;-142.97;23.20
8451;BME280;4262;50.980;13.892;2023-05-03T14:14:19;50216.66;;;-142.97;22.65
8451;BME280;4262;50.980;13.892;2023-05-03T14:16:46;50216.66;;;-142.97;22.63
8451;BME280;4262;50.980;13.892;2023-05-03T14:19:12;50243.94;;;-142.97;22.73
8451;BME280;4262;50.980;13.892;2023-05-03T14:21:42;50251.75;;;-142.97;22.91
8451;BME280;4262;50.980;13.892;2023-05-03T14:24:09;50243.94;;;-142.97;22.81
8451;BME280;4262;50.980;13.892;2023-05-03T14:26:38;50257.59;;;-142.97;21.83
8451;BME280;4262;50.980;13.892;2023-05-03T14:29:05;50275.16;;;-142.97;21.65
8451;BME280;4262;50.980;13.892;2023-05-03T14:31:32;50247.84;;;-142.97;22.55
8451;BME280;4262;50.980;13.892;2023-05-03T14:33:59;50259.56;;;-142.97;22.48
8451;BME280;4262;50.980;13.892;2023-05-03T14:36:26;50251.75;;;-142.97;22.02
8451;BME280;4262;50.980;13.892;2023-05-03T14:38:57;50243.94;;;-142.97;21.17
8451;BME280;4262;50.980;13.892;2023-05-03T14:41:25;50242.00;;;-142.97;21.05
8451;BME280;4262;50.980;13.892;2023-05-03T14:43:53;50240.06;;;-142.97;21.64
8451;BME280;4262;50.980;13.892;2023-05-03T14:46:20;50275.16;;;-142.97;21.65
8451;BME280;4262;50.980;13.892;2023-05-03T14:48:47;50240.06;;;-142.97;21.69
8451;BME280;4262;50.980;13.892;2023-05-03T14:51:14;50253.69;;;-142.97;22.35
8451;BME280;4262;50.980;13.892;2023-05-03T14:53:42;50277.09;;;-142.97;23.01
8451;BME280;4262;50.980;13.892;2023-05-03T14:56:09;50261.50;;;-142.97;23.07
8451;BME280;4262;50.980;13.892;2023-05-03T14:58:35;50247.84;;;-142.97;21.84
8451;BME280;4262;50.980;13.892;2023-05-03T15:01:03;50261.50;;;-142.97;22.05
8451;BME280;4262;50.980;13.892;2023-05-03T15:03:30;50269.28;;;-142.97;22.19
8451;BME280;4262;50.980;13.892;2023-05-03T15:05:57;50265.41;;;-142.97;22.23
8451;BME280;4262;50.980;13.892;2023-05-03T15:08:24;50230.31;;;-142.97;22.64
8451;BME280;4262;50.980;13.892;2023-05-03T15:10:52;50247.84;;;-142.97;22.10
8451;BME280;4262;50.980;13.892;2023-05-03T15:13:18;50243.94;;;-142.97;22.45
8451;BME280;4262;50.980;13.892;2023-05-03T15:15:45;50232.25;;;-142.97;22.03
8451;BME280;4262;50.980;13.892;2023-05-03T15:18:13;50247.84;;;-142.97;22.18
8451;BME280;4262;50.980;13.892;2023-05-03T15:20:43;50277.09;;;-142.97;22.62
8451;BME280;4262;50.980;13.892;2023-05-03T15:23:09;50249.81;;;-142.97;22.55
8451;BME280;4262;50.980;13.892;2023-05-03T15:25:36;50261.50;;;-142.97;22.86
8451;BME280;4262;50.980;13.892;2023-05-03T15:28:03;50282.94;;;-142.97;23.22
8451;BME280;4262;50.980;13.892;2023-05-03T15:30:31;50257.59;;;-142.97;23.27
8451;BME280;4262;50.980;13.892;2023-05-03T15:32:58;50259.56;;;-142.97;22.78
8451;BME280;4262;50.980;13.892;2023-05-03T15:35:26;50253.69;;;-142.97;22.51
8451;BME280;4262;50.980;13.892;2023-05-03T15:37:53;50265.41;;;-142.97;22.57
8451;BME280;4262;50.980;13.892;2023-05-03T15:40:19;50251.75;;;-142.97;22.62
8451;BME280;4262;50.980;13.892;2023-05-03T15:42:46;50286.84;;;-142.97;23.15
8451;BME280;4262;50.980;13.892;2023-05-03T15:45:13;50230.31;;;-142.97;22.16
8451;BME280;4262;50.980;13.892;2023-05-03T15:47:40;50255.66;;;-142.97;22.74
8451;BME280;4262;50.980;13.892;2023-05-03T15:50:07;50277.09;;;-142.97;22.69
8451;BME280;4262;50.980;13.892;2023-05-03T15:52:35;50269.28;;;-142.97;22.49
8451;BME280;4262;50.980;13.892;2023-05-03T15:55:02;50257.59;;;-142.97;22.62
8451;BME280;4262;50.980;13.892;2023-05-03T15:57:29;50273.19;;;-142.97;22.53
8451;BME280;4262;50.980;13.892;2023-05-03T15:59:56;50243.94;;;-142.97;23.15
8451;BME280;4262;50.980;13.892;2023-05-03T16:02:23;50263.44;;;-142.97;22.70
8451;BME280;4262;50.980;13.892;2023-05-03T16:04:51;50271.25;;;-142.97;22.72
8451;BME280;4262;50.980;13.892;2023-05-03T16:07:18;50273.19;;;-142.97;22.73
8451;BME280;4262;50.980;13.892;2023-05-03T16:09:46;50279.03;;;-142.97;22.55
8451;BME280;4262;50.980;13.892;2023-05-03T16:12:13;50255.66;;;-142.97;22.05
8451;BME280;4262;50.980;13.892;2023-05-03T16:14:41;50253.69;;;-142.97;22.68
8451;BME280;4262;50.980;13.892;2023-05-03T16:17:08;50243.94;;;-142.97;23.01
8451;BME280;4262;50.980;13.892;2023-05-03T16:19:35;50275.16;;;-142.97;23.01
8451;BME280;4262;50.980;13.892;2023-05-03T16:22:03;50279.03;;;-142.97;22.91
8451;BME280;4262;50.980;13.892;2023-05-03T16:24:30;50292.69;;;-142.97;23.26
8451;BME280;4262;50.980;13.892;2023-05-03T16:27:00;50245.91;;;-142.97;22.77
8451;BME280;4262;50.980;13.892;2023-05-03T16:29:28;50259.56;;;-142.97;22.70